createdAt,value
2019-06-26T00:02:21.718Z,27.67
2019-06-26T00:04:53.053Z,27.65
2019-06-26T00:07:24.319Z,27.58
2019-06-26T00:09:55.694Z,27.52
2019-06-26T00:12:27.033Z,27.48
2019-06-26T00:14:58.285Z,27.45
2019-06-26T00:17:29.632Z,27.43
2019-06-26T00:20:00.860Z,27.39
2019-06-26T00:22:32.225Z,27.37
2019-06-26T00:25:04.155Z,27.34
2019-06-26T00:27:36.075Z,27.31
2019-06-26T00:30:08.564Z,27.30
2019-06-26T00:32:39.926Z,27.27
2019-06-26T00:35:11.340Z,27.26
2019-06-26T00:37:42.655Z,27.23
2019-06-26T00:40:15.397Z,27.20
2019-06-26T00:42:46.689Z,27.15
2019-06-26T00:45:18.053Z,27.13
2019-06-26T00:47:49.342Z,27.08
2019-06-26T00:50:20.590Z,27.05
2019-06-26T00:52:52.870Z,27.01
2019-06-26T00:55:24.275Z,26.98
2019-06-26T00:57:55.494Z,26.94
2019-06-26T01:00:32.791Z,26.90
2019-06-26T01:03:04.208Z,26.79
2019-06-26T01:05:35.539Z,26.72
2019-06-26T01:08:06.803Z,26.67
2019-06-26T01:10:38.133Z,26.64
2019-06-26T01:13:09.406Z,26.61
2019-06-26T01:15:40.810Z,26.57
2019-06-26T01:18:12.175Z,26.55
2019-06-26T01:20:43.582Z,26.54
2019-06-26T01:23:15.223Z,26.52
2019-06-26T01:25:46.485Z,26.50
2019-06-26T01:28:17.883Z,26.49
2019-06-26T01:30:49.166Z,26.45
2019-06-26T01:33:20.507Z,26.42
2019-06-26T01:35:51.773Z,26.38
2019-06-26T01:38:23.017Z,26.37
2019-06-26T01:40:54.317Z,26.35
2019-06-26T01:43:25.721Z,26.34
2019-06-26T01:45:57.009Z,26.33
2019-06-26T01:48:28.273Z,26.30
2019-06-26T01:50:59.547Z,26.27
2019-06-26T01:53:30.778Z,26.25
2019-06-26T01:56:02.183Z,26.24
2019-06-26T01:58:33.584Z,26.23
2019-06-26T02:01:04.809Z,26.20
2019-06-26T02:03:36.170Z,26.19
2019-06-26T02:06:07.506Z,26.16
2019-06-26T02:08:38.766Z,26.14
2019-06-26T02:11:10.190Z,26.12
2019-06-26T02:13:41.444Z,26.10
2019-06-26T02:16:12.763Z,26.08
2019-06-26T02:18:48.267Z,26.05
2019-06-26T02:21:19.601Z,26.02
2019-06-26T02:23:50.945Z,26.00
2019-06-26T02:26:22.221Z,26.00
2019-06-26T02:28:53.621Z,25.97
2019-06-26T02:31:25.042Z,25.95
2019-06-26T02:33:56.331Z,25.93
2019-06-26T02:36:27.563Z,25.92
2019-06-26T02:38:58.895Z,25.90
2019-06-26T02:41:30.159Z,25.87
2019-06-26T02:44:01.457Z,25.85
2019-06-26T02:46:32.778Z,25.83
2019-06-26T02:49:04.070Z,25.82
2019-06-26T02:51:35.452Z,25.79
2019-06-26T02:56:42.104Z,25.85
2019-06-26T02:59:13.393Z,25.76
2019-06-26T03:01:44.777Z,25.74
2019-06-26T03:04:16.012Z,25.71
2019-06-26T03:06:47.295Z,25.70
2019-06-26T03:09:19.745Z,25.69
2019-06-26T03:11:51.064Z,25.66
2019-06-26T03:14:22.377Z,25.64
2019-06-26T03:16:53.734Z,25.63
2019-06-26T03:19:24.994Z,25.61
2019-06-26T03:21:56.400Z,25.60
2019-06-26T03:24:27.812Z,25.60
2019-06-26T03:26:59.121Z,25.60
2019-06-26T03:29:30.397Z,25.58
2019-06-26T03:32:01.738Z,25.57
2019-06-26T03:34:33.040Z,25.57
2019-06-26T03:37:04.359Z,25.56
2019-06-26T03:39:35.644Z,25.55
2019-06-26T03:42:06.913Z,25.54
2019-06-26T03:44:38.227Z,25.53
2019-06-26T03:47:09.553Z,25.53
2019-06-26T03:49:40.838Z,25.52
2019-06-26T03:52:12.089Z,25.52
2019-06-26T03:54:43.406Z,25.53
2019-06-26T03:57:14.730Z,25.53
2019-06-26T03:59:46.145Z,25.53
2019-06-26T04:02:17.619Z,25.52
2019-06-26T04:04:48.852Z,25.52
2019-06-26T04:07:20.053Z,25.52
2019-06-26T04:09:51.367Z,25.52
2019-06-26T04:12:22.678Z,25.51
2019-06-26T04:14:53.833Z,25.51
2019-06-26T04:17:26.143Z,25.51
2019-06-26T04:19:57.456Z,25.51
2019-06-26T04:22:28.699Z,25.52
2019-06-26T04:25:00.006Z,25.51
2019-06-26T04:27:32.344Z,25.53
2019-06-26T04:30:03.517Z,25.54
2019-06-26T04:32:34.729Z,25.55
2019-06-26T04:35:06.055Z,25.56
2019-06-26T04:37:37.404Z,25.58
2019-06-26T04:40:08.660Z,25.60
2019-06-26T04:42:39.870Z,25.64
2019-06-26T04:45:11.150Z,25.65
2019-06-26T04:47:42.414Z,25.69
2019-06-26T04:50:13.914Z,25.72
2019-06-26T04:52:45.085Z,25.76
2019-06-26T04:55:16.298Z,25.79
2019-06-26T04:57:47.528Z,25.82
2019-06-26T05:00:21.741Z,25.85
2019-06-26T05:02:51.623Z,25.89
2019-06-26T05:05:35.473Z,25.93
2019-06-26T05:07:55.749Z,25.97
2019-06-26T05:10:26.937Z,26.02
2019-06-26T05:12:58.131Z,26.06
2019-06-26T05:15:29.364Z,26.11
2019-06-26T05:18:00.681Z,26.16
2019-06-26T05:20:31.813Z,26.21
2019-06-26T05:23:03.165Z,26.26
2019-06-26T05:25:34.351Z,26.30
2019-06-26T05:28:08.230Z,26.35
2019-06-26T05:30:38.480Z,26.40
2019-06-26T05:33:09.696Z,26.45
2019-06-26T05:35:40.975Z,26.50
2019-06-26T05:38:12.132Z,26.55
2019-06-26T05:40:43.337Z,26.61
2019-06-26T05:43:14.608Z,26.66
2019-06-26T05:45:45.863Z,26.71
2019-06-26T05:48:17.066Z,26.79
2019-06-26T05:50:48.226Z,26.85
2019-06-26T05:53:19.484Z,26.91
2019-06-26T05:55:50.630Z,26.97
2019-06-26T05:58:21.799Z,27.03
2019-06-26T06:00:53.061Z,27.08
2019-06-26T06:03:24.328Z,27.16
2019-06-26T06:05:55.589Z,27.21
2019-06-26T06:08:26.742Z,27.28
2019-06-26T06:10:58.407Z,27.35
2019-06-26T06:13:29.814Z,27.41
2019-06-26T06:16:00.957Z,27.48
2019-06-26T06:18:32.159Z,27.55
2019-06-26T06:21:03.380Z,27.62
2019-06-26T06:23:34.835Z,27.70
2019-06-26T06:26:06.018Z,27.77
2019-06-26T06:28:37.183Z,27.86
2019-06-26T06:31:08.358Z,27.95
2019-06-26T06:33:39.584Z,28.06
2019-06-26T06:36:10.808Z,28.16
2019-06-26T06:38:41.956Z,28.28
2019-06-26T06:41:13.100Z,28.41
2019-06-26T06:43:44.244Z,28.53
2019-06-26T06:46:15.419Z,28.65
2019-06-26T06:48:46.576Z,28.77
2019-06-26T06:51:17.728Z,28.89
2019-06-26T06:53:48.911Z,29.00
2019-06-26T06:56:20.100Z,29.09
2019-06-26T06:58:51.318Z,29.19
2019-06-26T07:01:22.496Z,29.29
2019-06-26T07:03:53.663Z,29.40
2019-06-26T07:06:24.852Z,29.49
2019-06-26T07:08:56.038Z,29.59
2019-06-26T07:11:28.207Z,29.68
2019-06-26T07:13:59.391Z,29.99
2019-06-26T07:16:30.634Z,29.97
2019-06-26T07:19:01.798Z,29.99
2019-06-26T07:21:32.962Z,30.27
2019-06-26T07:24:04.149Z,30.43
2019-06-26T07:26:35.296Z,30.32
2019-06-26T07:29:06.529Z,30.33
2019-06-26T07:31:38.614Z,30.35
2019-06-26T07:34:09.868Z,30.37
2019-06-26T07:36:41.060Z,30.41
2019-06-26T07:39:12.261Z,30.45
2019-06-26T07:41:43.414Z,30.49
2019-06-26T07:44:14.604Z,30.56
2019-06-26T07:46:45.753Z,30.62
2019-06-26T07:49:16.940Z,30.66
2019-06-26T07:51:48.096Z,30.71
2019-06-26T07:54:19.326Z,30.75
2019-06-26T07:56:50.470Z,30.79
2019-06-26T07:59:21.688Z,30.82
2019-06-26T08:01:52.977Z,30.88
2019-06-26T08:04:24.217Z,30.93
2019-06-26T08:06:55.419Z,30.97
2019-06-26T08:09:26.628Z,31.01
2019-06-26T08:11:57.974Z,31.04
2019-06-26T08:14:29.154Z,31.07
2019-06-26T08:17:00.324Z,31.12
2019-06-26T08:19:31.649Z,31.17
2019-06-26T08:22:02.788Z,31.22
2019-06-26T08:24:34.008Z,31.30
2019-06-26T08:27:05.194Z,31.37
2019-06-26T08:29:36.367Z,31.42
2019-06-26T08:32:07.529Z,31.48
2019-06-26T08:34:39.732Z,31.55
2019-06-26T08:37:10.946Z,31.62
2019-06-26T08:39:42.108Z,31.68
2019-06-26T08:42:13.267Z,31.75
2019-06-26T08:44:44.452Z,31.78
2019-06-26T08:47:15.680Z,31.82
2019-06-26T08:49:46.887Z,31.85
2019-06-26T08:52:18.140Z,31.86
2019-06-26T08:54:49.350Z,31.88
2019-06-26T08:57:20.666Z,31.90
2019-06-26T08:59:51.824Z,31.93
2019-06-26T09:02:23.013Z,31.98
2019-06-26T09:04:54.206Z,32.00
2019-06-26T09:07:25.512Z,32.04
2019-06-26T09:09:56.770Z,32.06
2019-06-26T09:12:27.958Z,32.09
2019-06-26T09:14:59.182Z,32.13
2019-06-26T09:17:30.352Z,32.15
2019-06-26T09:20:01.682Z,32.18
2019-06-26T09:22:32.950Z,32.21
2019-06-26T09:25:20.329Z,32.23
2019-06-26T09:27:37.246Z,32.26
2019-06-26T09:30:08.974Z,32.30
2019-06-26T09:32:40.161Z,32.34
2019-06-26T09:35:11.335Z,32.37
2019-06-26T09:37:42.513Z,32.41
2019-06-26T09:40:14.699Z,32.46
2019-06-26T09:42:45.905Z,32.51
2019-06-26T09:45:17.195Z,32.55
2019-06-26T09:47:48.412Z,32.60
2019-06-26T09:50:19.723Z,32.64
2019-06-26T09:52:50.961Z,32.70
2019-06-26T09:55:22.212Z,32.75
2019-06-26T09:57:53.428Z,32.82
2019-06-26T10:00:24.887Z,32.88
2019-06-26T10:02:56.149Z,32.90
2019-06-26T10:05:27.333Z,32.93
2019-06-26T10:07:58.606Z,32.96
2019-06-26T10:10:29.863Z,32.97
2019-06-26T10:13:01.275Z,33.00
2019-06-26T10:15:32.572Z,33.03
2019-06-26T10:18:03.869Z,33.08
2019-06-26T10:20:36.180Z,33.12
2019-06-26T10:23:07.360Z,33.14
2019-06-26T10:25:38.707Z,33.18
2019-06-26T10:28:10.086Z,33.22
2019-06-26T10:30:41.372Z,33.26
2019-06-26T10:33:12.580Z,33.33
2019-06-26T10:35:43.839Z,33.37
2019-06-26T10:38:15.240Z,33.40
2019-06-26T10:40:46.452Z,33.42
2019-06-26T10:43:17.665Z,33.45
2019-06-26T10:45:48.873Z,33.49
2019-06-26T10:48:20.125Z,33.51
2019-06-26T10:50:58.185Z,33.55
2019-06-26T10:53:24.261Z,33.58
2019-06-26T10:55:55.538Z,33.61
2019-06-26T10:58:26.743Z,33.63
2019-06-26T11:00:58.087Z,33.64
2019-06-26T11:03:29.482Z,33.67
2019-06-26T11:06:00.943Z,33.72
2019-06-26T11:08:32.313Z,33.73
2019-06-26T11:11:03.664Z,33.75
2019-06-26T11:13:34.954Z,33.78
2019-06-26T11:16:06.349Z,33.82
2019-06-26T11:18:37.761Z,33.84
2019-06-26T11:21:08.982Z,33.84
2019-06-26T11:23:40.315Z,33.89
2019-06-26T11:26:11.584Z,33.89
2019-06-26T11:28:42.739Z,33.95
2019-06-26T11:31:14.082Z,33.98
2019-06-26T11:33:45.279Z,34.01
2019-06-26T11:36:16.609Z,34.04
2019-06-26T11:38:47.738Z,34.11
2019-06-26T11:41:19.080Z,34.14
2019-06-26T11:43:50.302Z,34.17
2019-06-26T11:46:21.730Z,34.17
2019-06-26T11:48:52.979Z,34.19
2019-06-26T11:51:24.208Z,34.22
2019-06-26T11:53:58.877Z,34.23
2019-06-26T11:56:29.591Z,34.26
2019-06-26T11:59:00.821Z,34.32
2019-06-26T12:01:32.038Z,34.36
2019-06-26T12:04:03.350Z,34.62
2019-06-26T12:06:34.584Z,34.77
2019-06-26T12:09:07.319Z,34.90
2019-06-26T12:11:38.772Z,34.98
2019-06-26T12:14:10.240Z,34.82
2019-06-26T12:16:41.657Z,34.79
2019-06-26T12:19:12.919Z,34.78
2019-06-26T12:21:44.224Z,34.77
2019-06-26T12:24:15.527Z,35.02
2019-06-26T12:26:47.842Z,34.88
2019-06-26T12:29:19.032Z,34.82
2019-06-26T12:31:50.439Z,34.80
2019-06-26T12:34:21.799Z,34.81
2019-06-26T12:36:53.067Z,34.85
2019-06-26T12:39:24.293Z,34.86
2019-06-26T12:41:55.590Z,34.89
2019-06-26T12:44:26.829Z,34.91
2019-06-26T12:46:58.225Z,34.92
2019-06-26T12:49:29.565Z,34.86
2019-06-26T12:52:00.771Z,34.86
2019-06-26T12:54:33.034Z,34.84
2019-06-26T12:57:04.305Z,34.84
2019-06-26T12:59:35.643Z,34.85
2019-06-26T13:02:06.866Z,34.86
2019-06-26T13:04:38.187Z,34.86
2019-06-26T13:07:10.409Z,34.91
2019-06-26T13:09:41.648Z,34.91
2019-06-26T13:12:12.922Z,34.93
2019-06-26T13:14:44.271Z,34.94
2019-06-26T13:17:15.429Z,34.96
2019-06-26T13:19:46.690Z,34.93
2019-06-26T13:22:18.105Z,35.02
2019-06-26T13:24:49.321Z,35.07
2019-06-26T13:27:20.519Z,35.07
2019-06-26T13:29:51.690Z,35.06
2019-06-26T13:32:23.015Z,35.06
2019-06-26T13:34:54.326Z,35.04
2019-06-26T13:37:25.495Z,35.04
2019-06-26T13:39:56.806Z,35.05
2019-06-26T13:42:28.324Z,35.07
2019-06-26T13:44:59.612Z,35.09
2019-06-26T13:47:30.810Z,35.09
2019-06-26T13:50:02.825Z,35.18
2019-06-26T13:52:34.204Z,35.30
2019-06-26T13:55:05.704Z,35.30
2019-06-26T13:57:36.975Z,35.33
2019-06-26T14:00:08.385Z,35.37
2019-06-26T14:02:39.685Z,35.45
2019-06-26T14:05:11.063Z,35.47
2019-06-26T14:07:42.312Z,35.46
2019-06-26T14:10:13.785Z,35.45
2019-06-26T14:12:45.004Z,35.45
2019-06-26T14:15:16.730Z,35.44
2019-06-26T14:17:48.046Z,35.43
2019-06-26T14:20:19.484Z,35.41
2019-06-26T14:22:51.314Z,35.36
2019-06-26T14:25:22.536Z,35.34
2019-06-26T14:27:53.733Z,35.33
2019-06-26T14:30:27.830Z,35.29
2019-06-26T14:32:57.894Z,35.27
2019-06-26T14:35:29.272Z,35.25
2019-06-26T14:38:00.537Z,35.22
2019-06-26T14:40:31.758Z,35.22
2019-06-26T14:43:02.935Z,35.20
2019-06-26T14:45:34.271Z,35.18
2019-06-26T14:48:05.466Z,35.19
2019-06-26T14:50:36.864Z,35.19
2019-06-26T14:53:08.118Z,35.22
2019-06-26T14:55:39.352Z,35.22
2019-06-26T14:58:10.615Z,35.22
2019-06-26T15:00:42.848Z,35.25
2019-06-26T15:03:14.108Z,35.33
2019-06-26T15:05:45.481Z,35.44
2019-06-26T15:08:16.706Z,35.51
2019-06-26T15:10:48.877Z,35.57
2019-06-26T15:13:20.077Z,35.66
2019-06-26T15:15:54.659Z,35.71
2019-06-26T15:18:25.313Z,35.77
2019-06-26T15:20:56.587Z,35.80
2019-06-26T15:23:27.982Z,35.86
2019-06-26T15:25:59.124Z,35.88
2019-06-26T15:28:30.460Z,35.91
2019-06-26T15:31:01.675Z,35.92
2019-06-26T15:33:36.490Z,35.91
2019-06-26T15:36:05.848Z,35.92
2019-06-26T15:38:37.073Z,35.89
2019-06-26T15:41:08.342Z,35.86
2019-06-26T15:43:39.604Z,35.85
2019-06-26T15:46:10.792Z,35.82
2019-06-26T15:48:42.020Z,35.80
2019-06-26T15:51:13.215Z,35.69
2019-06-26T15:53:44.416Z,35.65
2019-06-26T15:56:15.725Z,35.59
2019-06-26T15:58:47.012Z,35.51
2019-06-26T16:01:18.262Z,35.43
2019-06-26T16:03:49.500Z,35.33
2019-06-26T16:06:20.678Z,35.28
2019-06-26T16:08:52.838Z,35.22
2019-06-26T16:11:24.065Z,35.16
2019-06-26T16:13:55.333Z,35.09
2019-06-26T16:16:26.534Z,35.04
2019-06-26T16:19:05.559Z,34.98
2019-06-26T16:21:36.764Z,34.98
2019-06-26T16:24:07.936Z,34.96
2019-06-26T16:26:39.162Z,34.91
2019-06-26T16:29:10.338Z,34.87
2019-06-26T16:31:41.496Z,34.86
2019-06-26T16:34:12.730Z,34.81
2019-06-26T16:36:43.967Z,34.81
2019-06-26T16:39:15.340Z,34.86
2019-06-26T16:41:48.951Z,34.85
2019-06-26T16:44:19.700Z,34.80
2019-06-26T16:46:50.896Z,34.71
2019-06-26T16:49:22.209Z,34.58
2019-06-26T16:51:53.489Z,34.58
2019-06-26T16:54:24.834Z,34.58
2019-06-26T16:56:56.009Z,34.45
2019-06-26T16:59:28.272Z,34.45
2019-06-26T17:01:59.494Z,34.41
2019-06-26T17:04:30.872Z,34.46
2019-06-26T17:07:03.079Z,34.42
2019-06-26T17:09:34.256Z,34.39
2019-06-26T17:12:05.883Z,34.33
2019-06-26T17:14:37.581Z,34.33
2019-06-26T17:17:08.875Z,34.30
2019-06-26T17:19:40.022Z,34.18
2019-06-26T17:22:11.334Z,34.18
2019-06-26T17:24:42.542Z,34.04
2019-06-26T17:27:13.956Z,34.04
2019-06-26T17:29:45.413Z,34.04
2019-06-26T17:32:16.656Z,33.99
2019-06-26T17:34:48.077Z,34.03
2019-06-26T17:37:19.242Z,34.00
2019-06-26T17:39:50.611Z,33.96
2019-06-26T17:42:22.811Z,33.94
2019-06-26T17:44:54.072Z,33.97
2019-06-26T17:47:25.440Z,34.00
2019-06-26T17:49:56.711Z,34.03
2019-06-26T17:52:28.091Z,34.03
2019-06-26T17:54:59.332Z,33.98
2019-06-26T17:57:31.970Z,33.87
2019-06-26T18:00:05.547Z,33.78
2019-06-26T18:02:43.066Z,33.67
2019-06-26T18:05:14.875Z,33.62
2019-06-26T18:07:47.193Z,33.57
2019-06-26T18:10:18.893Z,33.52
2019-06-26T18:12:50.137Z,33.42
2019-06-26T18:15:21.376Z,33.34
2019-06-26T18:17:52.609Z,33.28
2019-06-26T18:20:24.045Z,33.22
2019-06-26T18:23:06.412Z,33.16
2019-06-26T18:25:28.208Z,33.11
2019-06-26T18:27:59.532Z,33.08
2019-06-26T18:30:30.851Z,33.05
2019-06-26T18:33:02.088Z,32.99
2019-06-26T18:35:34.451Z,32.92
2019-06-26T18:38:06.200Z,32.84
2019-06-26T18:40:37.720Z,32.75
2019-06-26T18:43:08.908Z,32.65
2019-06-26T18:45:40.138Z,32.54
2019-06-26T18:48:11.368Z,32.47
2019-06-26T18:50:42.631Z,32.39
2019-06-26T18:53:13.864Z,32.33
2019-06-26T18:55:46.249Z,32.27
2019-06-26T18:58:19.367Z,32.22
2019-06-26T19:00:51.674Z,32.17
2019-06-26T19:03:24.008Z,32.10
2019-06-26T19:05:57.152Z,31.96
2019-06-26T19:08:28.324Z,31.78
2019-06-26T19:10:59.571Z,31.64
2019-06-26T19:13:30.971Z,31.51
2019-06-26T19:16:04.522Z,31.41
2019-06-26T19:18:35.192Z,31.33
2019-06-26T19:21:06.380Z,31.26
2019-06-26T19:23:37.614Z,31.15
2019-06-26T19:26:08.800Z,31.05
2019-06-26T19:28:39.993Z,30.90
2019-06-26T19:31:11.594Z,30.77
2019-06-26T19:33:45.628Z,30.69
2019-06-26T19:36:15.921Z,30.66
2019-06-26T19:38:47.087Z,30.61
2019-06-26T19:41:19.489Z,30.59
2019-06-26T19:43:50.656Z,30.58
2019-06-26T19:46:21.991Z,30.56
2019-06-26T19:48:53.157Z,30.54
2019-06-26T19:51:24.345Z,30.51
2019-06-26T19:53:55.531Z,30.43
2019-06-26T19:56:26.839Z,30.30
2019-06-26T19:58:58.118Z,30.22
2019-06-26T20:01:29.251Z,30.15
2019-06-26T20:04:00.425Z,30.13
2019-06-26T20:06:31.717Z,30.09
2019-06-26T20:09:02.951Z,29.98
2019-06-26T20:11:34.557Z,29.79
2019-06-26T20:14:05.774Z,29.71
2019-06-26T20:16:36.926Z,29.65
2019-06-26T20:19:08.204Z,29.62
2019-06-26T20:21:39.465Z,29.60
2019-06-26T20:24:10.618Z,29.58
2019-06-26T20:26:42.809Z,29.59
2019-06-26T20:29:15.142Z,29.55
2019-06-26T20:31:48.103Z,29.52
2019-06-26T20:34:19.274Z,29.50
2019-06-26T20:36:50.537Z,29.47
2019-06-26T20:39:21.707Z,29.45
2019-06-26T20:41:53.046Z,29.40
2019-06-26T20:44:24.347Z,29.34
2019-06-26T20:46:55.552Z,29.24
2019-06-26T20:49:27.852Z,29.16
2019-06-26T20:51:59.116Z,29.10
2019-06-26T20:54:30.315Z,29.03
2019-06-26T20:57:01.499Z,28.98
2019-06-26T20:59:32.713Z,28.91
2019-06-26T21:02:03.994Z,28.86
2019-06-26T21:04:35.191Z,28.80
2019-06-26T21:07:06.771Z,28.77
2019-06-26T21:09:38.876Z,28.73
2019-06-26T21:12:10.089Z,28.68
2019-06-26T21:14:41.233Z,28.63
2019-06-26T21:17:15.570Z,28.58
2019-06-26T21:19:47.084Z,28.52
2019-06-26T21:22:18.489Z,28.47
2019-06-26T21:24:49.679Z,28.42
2019-06-26T21:27:20.840Z,28.78
2019-06-26T21:29:52.095Z,28.87
2019-06-26T21:32:23.244Z,28.59
2019-06-26T21:34:54.557Z,28.46
2019-06-26T21:37:25.771Z,28.35
2019-06-26T21:39:57.060Z,28.23
2019-06-26T21:42:28.233Z,28.12
2019-06-26T21:44:59.449Z,28.06
2019-06-26T21:47:30.755Z,27.97
2019-06-26T21:50:01.956Z,27.90
2019-06-26T21:52:33.237Z,27.84
2019-06-26T21:55:05.465Z,27.76
2019-06-26T21:57:54.480Z,27.70
2019-06-26T22:00:43.360Z,27.60
2019-06-26T22:03:32.370Z,27.53
2019-06-26T22:06:14.229Z,27.40
2019-06-26T22:08:47.306Z,27.28
2019-06-26T22:11:20.144Z,27.18
2019-06-26T22:13:51.613Z,27.07
2019-06-26T22:16:22.833Z,27.00
2019-06-26T22:18:54.306Z,26.92
2019-06-26T22:21:25.783Z,26.84
2019-06-26T22:23:57.925Z,26.78
2019-06-26T22:26:29.152Z,26.68
2019-06-26T22:29:00.317Z,26.61
2019-06-26T22:31:31.676Z,26.47
2019-06-26T22:34:02.920Z,26.36
2019-06-26T22:36:34.123Z,26.27
2019-06-26T22:39:05.808Z,26.20
2019-06-26T22:41:36.987Z,26.56
2019-06-26T22:44:09.199Z,26.60
2019-06-26T22:46:40.371Z,26.19
2019-06-26T22:49:11.541Z,26.05
2019-06-26T22:51:42.757Z,25.94
2019-06-26T22:54:14.021Z,25.86
2019-06-26T22:56:45.194Z,25.74
2019-06-26T22:59:16.448Z,25.63
2019-06-26T23:01:47.637Z,25.54
2019-06-26T23:04:18.895Z,25.40
2019-06-26T23:06:50.095Z,25.33
2019-06-26T23:09:21.262Z,25.18
2019-06-26T23:11:52.487Z,25.00
2019-06-26T23:14:23.648Z,24.83
2019-06-26T23:16:54.836Z,24.73
2019-06-26T23:19:25.989Z,24.69
2019-06-26T23:21:57.237Z,24.71
2019-06-26T23:24:28.399Z,24.71
2019-06-26T23:26:59.627Z,24.73
2019-06-26T23:29:30.898Z,24.74
2019-06-26T23:32:03.488Z,24.72
2019-06-26T23:34:34.844Z,24.65
2019-06-26T23:37:06.029Z,24.60
2019-06-26T23:39:37.315Z,24.55
2019-06-26T23:42:08.494Z,24.48
2019-06-26T23:44:39.790Z,24.42
2019-06-26T23:47:10.978Z,24.39
2019-06-26T23:49:42.221Z,24.34
2019-06-26T23:52:13.421Z,24.30
2019-06-26T23:54:44.566Z,24.26
2019-06-26T23:57:15.738Z,24.20
2019-06-26T23:59:46.930Z,24.13
